sensor_id;sensor_type;location;lat;lon;timestamp;temperature;humidity
20558;DHT22;10437;48.156;11.530;2022-09-04T00:02:16;15.00;99.90
20558;DHT22;10437;48.156;11.530;2022-09-04T00:04:52;14.90;99.90
20558;DHT22;10437;48.156;11.530;2022-09-04T00:07:26;14.90;99.90
20558;DHT22;10437;48.156;11.530;2022-09-04T00:10:03;14.90;99.90
20558;DHT22;10437;48.156;11.530;2022-09-04T00:12:40;14.90;99.90
20558;DHT22;10437;48.156;11.530;2022-09-04T00:15:12;14.50;99.90
20558;DHT22;10437;48.156;11.530;2022-09-04T00:17:45;14.90;99.90
20558;DHT22;10437;48.156;11.530;2022-09-04T00:20:27;14.80;99.90
20558;DHT22;10437;48.156;11.530;2022-09-04T00:23:01;14.80;99.90
20558;DHT22;10437;48.156;11.530;2022-09-04T00:25:36;14.90;99.90
20558;DHT22;10437;48.156;11.530;2022-09-04T00:28:09;14.90;99.90
20558;DHT22;10437;48.156;11.530;2022-09-04T00:30:42;14.90;99.90
20558;DHT22;10437;48.156;11.530;2022-09-04T00:33:16;15.90;99.90
20558;DHT22;10437;48.156;11.530;2022-09-04T00:35:49;14.90;99.90
20558;DHT22;10437;48.156;11.530;2022-09-04T00:38:33;15.00;99.90
20558;DHT22;10437;48.156;11.530;2022-09-04T00:41:09;14.90;99.90
20558;DHT22;10437;48.156;11.530;2022-09-04T00:44:00;14.80;99.90
20558;DHT22;10437;48.156;11.530;2022-09-04T00:49:44;14.90;99.90
20558;DHT22;10437;48.156;11.530;2022-09-04T00:52:24;14.80;99.90
20558;DHT22;10437;48.156;11.530;2022-09-04T00:55:07;14.20;99.90
20558;DHT22;10437;48.156;11.530;2022-09-04T01:00:38;14.90;99.90
20558;DHT22;10437;48.156;11.530;2022-09-04T01:03:22;14.80;99.90
20558;DHT22;10437;48.156;11.530;2022-09-04T01:06:07;14.70;99.90
20558;DHT22;10437;48.156;11.530;2022-09-04T01:08:55;14.90;99.90
20558;DHT22;10437;48.156;11.530;2022-09-04T01:11:32;14.80;99.90
20558;DHT22;10437;48.156;11.530;2022-09-04T01:14:10;14.80;99.90
20558;DHT22;10437;48.156;11.530;2022-09-04T01:16:46;14.90;99.90
20558;DHT22;10437;48.156;11.530;2022-09-04T01:19:27;15.00;99.90
20558;DHT22;10437;48.156;11.530;2022-09-04T01:22:22;14.90;99.90
20558;DHT22;10437;48.156;11.530;2022-09-04T01:25:02;15.00;99.90
20558;DHT22;10437;48.156;11.530;2022-09-04T01:27:35;15.20;99.90
20558;DHT22;10437;48.156;11.530;2022-09-04T01:30:08;15.00;99.90
20558;DHT22;10437;48.156;11.530;2022-09-04T01:32:47;15.00;99.90
20558;DHT22;10437;48.156;11.530;2022-09-04T01:35:26;15.10;99.90
20558;DHT22;10437;48.156;11.530;2022-09-04T01:38:02;15.00;99.90
20558;DHT22;10437;48.156;11.530;2022-09-04T01:40:42;15.10;99.90
20558;DHT22;10437;48.156;11.530;2022-09-04T01:43:12;15.10;99.90
20558;DHT22;10437;48.156;11.530;2022-09-04T01:46:09;15.10;99.90
20558;DHT22;10437;48.156;11.530;2022-09-04T01:48:47;15.20;99.90
20558;DHT22;10437;48.156;11.530;2022-09-04T01:51:20;15.30;99.90
20558;DHT22;10437;48.156;11.530;2022-09-04T01:53:57;15.20;99.90
20558;DHT22;10437;48.156;11.530;2022-09-04T01:56:34;15.20;99.90
20558;DHT22;10437;48.156;11.530;2022-09-04T01:59:10;15.10;99.90
20558;DHT22;10437;48.156;11.530;2022-09-04T02:01:45;15.20;99.90
20558;DHT22;10437;48.156;11.530;2022-09-04T02:04:21;15.10;99.90
20558;DHT22;10437;48.156;11.530;2022-09-04T02:06:57;15.00;99.90
20558;DHT22;10437;48.156;11.530;2022-09-04T02:09:34;15.20;99.90
20558;DHT22;10437;48.156;11.530;2022-09-04T02:12:08;15.50;99.90
20558;DHT22;10437;48.156;11.530;2022-09-04T02:14:40;15.10;99.90
20558;DHT22;10437;48.156;11.530;2022-09-04T02:17:11;15.30;99.90
20558;DHT22;10437;48.156;11.530;2022-09-04T02:20:11;15.40;99.90
20558;DHT22;10437;48.156;11.530;2022-09-04T02:22:47;15.10;99.90
20558;DHT22;10437;48.156;11.530;2022-09-04T02:25:24;15.10;99.90
20558;DHT22;10437;48.156;11.530;2022-09-04T02:28:01;15.10;99.90
20558;DHT22;10437;48.156;11.530;2022-09-04T02:30:36;15.00;99.90
20558;DHT22;10437;48.156;11.530;2022-09-04T02:33:10;15.10;99.90
20558;DHT22;10437;48.156;11.530;2022-09-04T02:35:45;15.10;99.90
20558;DHT22;10437;48.156;11.530;2022-09-04T02:38:18;15.50;99.90
20558;DHT22;10437;48.156;11.530;2022-09-04T02:40:51;14.90;99.90
20558;DHT22;10437;48.156;11.530;2022-09-04T02:43:33;15.30;99.90
20558;DHT22;10437;48.156;11.530;2022-09-04T02:46:12;15.50;99.90
20558;DHT22;10437;48.156;11.530;2022-09-04T02:48:49;15.40;99.90
20558;DHT22;10437;48.156;11.530;2022-09-04T02:51:31;15.30;99.90
20558;DHT22;10437;48.156;11.530;2022-09-04T02:54:09;15.50;99.90
20558;DHT22;10437;48.156;11.530;2022-09-04T02:56:45;15.60;99.90
20558;DHT22;10437;48.156;11.530;2022-09-04T02:59:23;15.50;99.90
20558;DHT22;10437;48.156;11.530;2022-09-04T03:01:56;15.50;99.90
20558;DHT22;10437;48.156;11.530;2022-09-04T03:04:29;15.50;99.90
20558;DHT22;10437;48.156;11.530;2022-09-04T03:07:02;15.80;99.90
20558;DHT22;10437;48.156;11.530;2022-09-04T03:09:38;15.30;99.90
20558;DHT22;10437;48.156;11.530;2022-09-04T03:12:20;15.20;99.90
20558;DHT22;10437;48.156;11.530;2022-09-04T03:14:58;15.10;99.90
20558;DHT22;10437;48.156;11.530;2022-09-04T03:17:33;15.10;99.90
20558;DHT22;10437;48.156;11.530;2022-09-04T03:20:07;15.10;99.90
20558;DHT22;10437;48.156;11.530;2022-09-04T03:22:42;15.10;99.90
20558;DHT22;10437;48.156;11.530;2022-09-04T03:25:31;15.00;99.90
20558;DHT22;10437;48.156;11.530;2022-09-04T03:28:02;15.00;99.90
20558;DHT22;10437;48.156;11.530;2022-09-04T03:30:31;15.30;99.90
20558;DHT22;10437;48.156;11.530;2022-09-04T03:33:04;15.00;99.90
20558;DHT22;10437;48.156;11.530;2022-09-04T03:35:36;14.90;99.90
20558;DHT22;10437;48.156;11.530;2022-09-04T03:38:17;14.90;99.90
20558;DHT22;10437;48.156;11.530;2022-09-04T03:40:52;15.10;99.90
20558;DHT22;10437;48.156;11.530;2022-09-04T03:43:43;15.30;99.90
20558;DHT22;10437;48.156;11.530;2022-09-04T03:46:24;14.80;99.90
20558;DHT22;10437;48.156;11.530;2022-09-04T03:49:04;14.80;99.90
20558;DHT22;10437;48.156;11.530;2022-09-04T03:51:42;14.80;99.90
20558;DHT22;10437;48.156;11.530;2022-09-04T03:54:17;14.40;99.90
20558;DHT22;10437;48.156;11.530;2022-09-04T03:57:01;14.80;99.90
20558;DHT22;10437;48.156;11.530;2022-09-04T03:59:46;14.80;99.90
20558;DHT22;10437;48.156;11.530;2022-09-04T04:02:22;14.90;99.90
20558;DHT22;10437;48.156;11.530;2022-09-04T04:05:24;14.80;99.90
20558;DHT22;10437;48.156;11.530;2022-09-04T04:08:02;14.80;99.90
20558;DHT22;10437;48.156;11.530;2022-09-04T04:10:42;14.80;99.90
20558;DHT22;10437;48.156;11.530;2022-09-04T04:13:24;14.80;99.90
20558;DHT22;10437;48.156;11.530;2022-09-04T04:16:02;14.90;99.90
20558;DHT22;10437;48.156;11.530;2022-09-04T04:18:46;14.90;99.90
20558;DHT22;10437;48.156;11.530;2022-09-04T04:21:27;15.10;99.90
20558;DHT22;10437;48.156;11.530;2022-09-04T04:24:20;14.90;99.90
20558;DHT22;10437;48.156;11.530;2022-09-04T04:27:02;14.90;99.90
20558;DHT22;10437;48.156;11.530;2022-09-04T04:29:46;14.40;99.90
20558;DHT22;10437;48.156;11.530;2022-09-04T04:32:29;15.10;99.90
20558;DHT22;10437;48.156;11.530;2022-09-04T04:35:06;14.90;99.90
20558;DHT22;10437;48.156;11.530;2022-09-04T04:37:45;14.90;99.90
20558;DHT22;10437;48.156;11.530;2022-09-04T04:40:28;14.80;99.90
20558;DHT22;10437;48.156;11.530;2022-09-04T04:43:03;14.80;99.90
20558;DHT22;10437;48.156;11.530;2022-09-04T04:45:35;14.40;99.90
20558;DHT22;10437;48.156;11.530;2022-09-04T04:48:47;14.80;99.90
20558;DHT22;10437;48.156;11.530;2022-09-04T04:51:40;14.70;99.90
20558;DHT22;10437;48.156;11.530;2022-09-04T04:54:22;14.70;99.90
20558;DHT22;10437;48.156;11.530;2022-09-04T04:56:56;14.80;99.90
20558;DHT22;10437;48.156;11.530;2022-09-04T04:59:32;14.70;99.90
20558;DHT22;10437;48.156;11.530;2022-09-04T05:02:06;14.40;99.90
20558;DHT22;10437;48.156;11.530;2022-09-04T05:04:42;14.70;99.90
20558;DHT22;10437;48.156;11.530;2022-09-04T05:07:16;15.70;99.90
20558;DHT22;10437;48.156;11.530;2022-09-04T05:09:54;14.70;99.90
20558;DHT22;10437;48.156;11.530;2022-09-04T05:12:30;14.70;99.90
20558;DHT22;10437;48.156;11.530;2022-09-04T05:15:05;14.70;99.90
20558;DHT22;10437;48.156;11.530;2022-09-04T05:17:37;14.80;99.90
20558;DHT22;10437;48.156;11.530;2022-09-04T05:20:28;14.70;99.90
20558;DHT22;10437;48.156;11.530;2022-09-04T05:23:04;14.70;99.90
20558;DHT22;10437;48.156;11.530;2022-09-04T05:25:40;14.50;99.90
20558;DHT22;10437;48.156;11.530;2022-09-04T05:28:20;14.70;99.90
20558;DHT22;10437;48.156;11.530;2022-09-04T05:30:55;14.70;99.90
20558;DHT22;10437;48.156;11.530;2022-09-04T05:33:30;14.70;99.90
20558;DHT22;10437;48.156;11.530;2022-09-04T05:36:05;14.80;99.90
20558;DHT22;10437;48.156;11.530;2022-09-04T05:38:40;14.70;99.90
20558;DHT22;10437;48.156;11.530;2022-09-04T05:41:20;14.80;99.90
20558;DHT22;10437;48.156;11.530;2022-09-04T05:44:03;14.80;99.90
20558;DHT22;10437;48.156;11.530;2022-09-04T05:46:44;14.90;99.90
20558;DHT22;10437;48.156;11.530;2022-09-04T05:49:35;14.90;99.90
20558;DHT22;10437;48.156;11.530;2022-09-04T05:58:07;15.30;99.90
20558;DHT22;10437;48.156;11.530;2022-09-04T06:00:44;15.50;99.90
20558;DHT22;10437;48.156;11.530;2022-09-04T06:03:27;15.30;99.90
20558;DHT22;10437;48.156;11.530;2022-09-04T06:06:05;15.20;99.90
20558;DHT22;10437;48.156;11.530;2022-09-04T06:11:49;15.40;99.90
20558;DHT22;10437;48.156;11.530;2022-09-04T06:17:24;15.80;99.90
20558;DHT22;10437;48.156;11.530;2022-09-04T06:20:18;15.60;99.90
20558;DHT22;10437;48.156;11.530;2022-09-04T06:23:05;15.70;99.90
20558;DHT22;10437;48.156;11.530;2022-09-04T06:26:10;16.20;99.90
20558;DHT22;10437;48.156;11.530;2022-09-04T06:28:51;15.70;99.90
20558;DHT22;10437;48.156;11.530;2022-09-04T06:31:56;16.00;99.90
20558;DHT22;10437;48.156;11.530;2022-09-04T06:34:42;15.70;99.90
20558;DHT22;10437;48.156;11.530;2022-09-04T06:37:20;16.20;99.90
20558;DHT22;10437;48.156;11.530;2022-09-04T06:40:06;16.00;99.90
20558;DHT22;10437;48.156;11.530;2022-09-04T06:42:46;16.30;99.90
20558;DHT22;10437;48.156;11.530;2022-09-04T06:45:24;16.40;99.90
20558;DHT22;10437;48.156;11.530;2022-09-04T06:48:04;16.50;99.90
20558;DHT22;10437;48.156;11.530;2022-09-04T06:50:42;16.90;99.90
20558;DHT22;10437;48.156;11.530;2022-09-04T06:53:17;16.80;99.90
20558;DHT22;10437;48.156;11.530;2022-09-04T06:55:56;17.30;99.90
20558;DHT22;10437;48.156;11.530;2022-09-04T06:58:52;17.80;99.90
20558;DHT22;10437;48.156;11.530;2022-09-04T07:01:32;18.00;99.90
20558;DHT22;10437;48.156;11.530;2022-09-04T07:04:15;18.40;99.90
20558;DHT22;10437;48.156;11.530;2022-09-04T07:06:52;18.80;99.90
20558;DHT22;10437;48.156;11.530;2022-09-04T07:09:25;19.10;99.90
20558;DHT22;10437;48.156;11.530;2022-09-04T07:12:11;19.60;99.90
20558;DHT22;10437;48.156;11.530;2022-09-04T07:18:14;20.60;99.90
20558;DHT22;10437;48.156;11.530;2022-09-04T07:20:54;21.00;99.90
20558;DHT22;10437;48.156;11.530;2022-09-04T07:23:27;21.20;99.90
20558;DHT22;10437;48.156;11.530;2022-09-04T07:26:04;21.60;99.90
20558;DHT22;10437;48.156;11.530;2022-09-04T07:28:47;21.90;99.90
20558;DHT22;10437;48.156;11.530;2022-09-04T07:31:19;22.20;99.90
20558;DHT22;10437;48.156;11.530;2022-09-04T07:33:54;22.30;99.90
20558;DHT22;10437;48.156;11.530;2022-09-04T07:36:30;22.40;99.90
20558;DHT22;10437;48.156;11.530;2022-09-04T07:39:06;22.90;99.90
20558;DHT22;10437;48.156;11.530;2022-09-04T07:41:41;23.30;99.90
20558;DHT22;10437;48.156;11.530;2022-09-04T07:44:17;23.60;99.90
20558;DHT22;10437;48.156;11.530;2022-09-04T07:46:51;24.30;99.90
20558;DHT22;10437;48.156;11.530;2022-09-04T07:49:31;23.80;99.90
20558;DHT22;10437;48.156;11.530;2022-09-04T07:52:10;24.50;99.90
20558;DHT22;10437;48.156;11.530;2022-09-04T07:55:00;24.40;99.90
20558;DHT22;10437;48.156;11.530;2022-09-04T08:00:28;24.70;99.90
20558;DHT22;10437;48.156;11.530;2022-09-04T08:03:18;25.00;99.90
20558;DHT22;10437;48.156;11.530;2022-09-04T08:05:50;25.10;99.90
20558;DHT22;10437;48.156;11.530;2022-09-04T08:11:48;25.60;99.90
20558;DHT22;10437;48.156;11.530;2022-09-04T08:14:26;25.90;99.90
20558;DHT22;10437;48.156;11.530;2022-09-04T08:17:22;26.10;99.90
20558;DHT22;10437;48.156;11.530;2022-09-04T08:20:00;25.90;99.90
20558;DHT22;10437;48.156;11.530;2022-09-04T08:22:35;26.60;99.90
20558;DHT22;10437;48.156;11.530;2022-09-04T08:25:15;26.60;99.90
20558;DHT22;10437;48.156;11.530;2022-09-04T08:28:09;26.80;99.90
20558;DHT22;10437;48.156;11.530;2022-09-04T08:30:47;26.90;99.90
20558;DHT22;10437;48.156;11.530;2022-09-04T08:33:43;26.80;99.90
20558;DHT22;10437;48.156;11.530;2022-09-04T08:36:24;27.00;99.90
20558;DHT22;10437;48.156;11.530;2022-09-04T08:39:02;27.00;99.90
20558;DHT22;10437;48.156;11.530;2022-09-04T08:41:59;27.00;99.90
20558;DHT22;10437;48.156;11.530;2022-09-04T08:47:59;26.90;99.90
20558;DHT22;10437;48.156;11.530;2022-09-04T08:54:02;27.30;97.90
20558;DHT22;10437;48.156;11.530;2022-09-04T08:56:41;26.60;98.80
20558;DHT22;10437;48.156;11.530;2022-09-04T09:02:45;26.70;97.40
20558;DHT22;10437;48.156;11.530;2022-09-04T09:05:59;26.80;96.90
20558;DHT22;10437;48.156;11.530;2022-09-04T09:12:07;27.00;97.00
20558;DHT22;10437;48.156;11.530;2022-09-04T09:17:59;26.50;97.70
20558;DHT22;10437;48.156;11.530;2022-09-04T09:20:28;26.70;97.60
20558;DHT22;10437;48.156;11.530;2022-09-04T09:23:17;26.50;96.80
20558;DHT22;10437;48.156;11.530;2022-09-04T09:26:03;26.10;99.90
20558;DHT22;10437;48.156;11.530;2022-09-04T09:38:11;25.40;99.90
20558;DHT22;10437;48.156;11.530;2022-09-04T09:41:10;25.00;99.90
20558;DHT22;10437;48.156;11.530;2022-09-04T09:47:14;24.20;99.90
20558;DHT22;10437;48.156;11.530;2022-09-04T09:50:27;23.90;99.90
20558;DHT22;10437;48.156;11.530;2022-09-04T09:56:27;23.40;99.90
20558;DHT22;10437;48.156;11.530;2022-09-04T09:59:24;23.30;99.90
20558;DHT22;10437;48.156;11.530;2022-09-04T10:02:11;23.20;99.90
20558;DHT22;10437;48.156;11.530;2022-09-04T10:05:07;23.30;99.90
20558;DHT22;10437;48.156;11.530;2022-09-04T10:14:36;20.20;99.90
20558;DHT22;10437;48.156;11.530;2022-09-04T10:20:35;23.20;99.90
20558;DHT22;10437;48.156;11.530;2022-09-04T10:23:25;22.50;99.90
20558;DHT22;10437;48.156;11.530;2022-09-04T10:26:24;22.80;99.90
20558;DHT22;10437;48.156;11.530;2022-09-04T10:29:31;22.80;99.90
20558;DHT22;10437;48.156;11.530;2022-09-04T10:32:16;23.20;99.90
20558;DHT22;10437;48.156;11.530;2022-09-04T10:35:15;23.00;99.90
20558;DHT22;10437;48.156;11.530;2022-09-04T10:38:07;23.10;99.90
20558;DHT22;10437;48.156;11.530;2022-09-04T10:40:44;23.20;99.90
20558;DHT22;10437;48.156;11.530;2022-09-04T10:43:23;23.30;99.90
20558;DHT22;10437;48.156;11.530;2022-09-04T10:46:00;23.50;99.90
20558;DHT22;10437;48.156;11.530;2022-09-04T10:48:55;23.80;99.90
20558;DHT22;10437;48.156;11.530;2022-09-04T10:51:38;23.60;99.90
20558;DHT22;10437;48.156;11.530;2022-09-04T10:54:26;23.60;99.90
20558;DHT22;10437;48.156;11.530;2022-09-04T10:57:06;23.50;99.90
20558;DHT22;10437;48.156;11.530;2022-09-04T11:00:00;23.80;99.90
20558;DHT22;10437;48.156;11.530;2022-09-04T11:09:18;21.70;99.90
20558;DHT22;10437;48.156;11.530;2022-09-04T11:12:35;23.00;99.90
20558;DHT22;10437;48.156;11.530;2022-09-04T11:18:32;24.10;99.90
20558;DHT22;10437;48.156;11.530;2022-09-04T11:27:37;25.50;99.30
20558;DHT22;10437;48.156;11.530;2022-09-04T11:30:16;25.40;99.30
20558;DHT22;10437;48.156;11.530;2022-09-04T11:39:34;26.20;95.30
20558;DHT22;10437;48.156;11.530;2022-09-04T11:42:30;26.10;95.30
20558;DHT22;10437;48.156;11.530;2022-09-04T11:51:30;26.10;95.70
20558;DHT22;10437;48.156;11.530;2022-09-04T11:54:22;25.80;94.30
20558;DHT22;10437;48.156;11.530;2022-09-04T11:57:11;25.60;95.20
20558;DHT22;10437;48.156;11.530;2022-09-04T12:00:04;25.20;95.50
20558;DHT22;10437;48.156;11.530;2022-09-04T12:06:05;25.00;96.80
20558;DHT22;10437;48.156;11.530;2022-09-04T12:12:12;25.60;96.30
20558;DHT22;10437;48.156;11.530;2022-09-04T12:15:16;25.60;95.80
20558;DHT22;10437;48.156;11.530;2022-09-04T12:18:16;25.30;96.30
20558;DHT22;10437;48.156;11.530;2022-09-04T12:24:12;25.00;96.90
20558;DHT22;10437;48.156;11.530;2022-09-04T12:26:55;24.80;99.00
20558;DHT22;10437;48.156;11.530;2022-09-04T12:29:51;24.70;97.30
20558;DHT22;10437;48.156;11.530;2022-09-04T12:35:40;25.10;99.10
20558;DHT22;10437;48.156;11.530;2022-09-04T12:38:22;25.20;98.30
20558;DHT22;10437;48.156;11.530;2022-09-04T12:40:58;25.40;97.30
20558;DHT22;10437;48.156;11.530;2022-09-04T12:43:40;25.30;99.90
20558;DHT22;10437;48.156;11.530;2022-09-04T12:46:22;25.90;96.70
20558;DHT22;10437;48.156;11.530;2022-09-04T12:49:02;26.20;96.00
20558;DHT22;10437;48.156;11.530;2022-09-04T12:51:36;26.70;97.30
20558;DHT22;10437;48.156;11.530;2022-09-04T12:54:22;26.00;96.10
20558;DHT22;10437;48.156;11.530;2022-09-04T12:57:08;26.40;95.80
20558;DHT22;10437;48.156;11.530;2022-09-04T12:59:52;26.60;95.90
20558;DHT22;10437;48.156;11.530;2022-09-04T13:02:33;27.10;95.00
20558;DHT22;10437;48.156;11.530;2022-09-04T13:05:11;26.60;94.30
20558;DHT22;10437;48.156;11.530;2022-09-04T13:07:53;27.10;93.90
20558;DHT22;10437;48.156;11.530;2022-09-04T13:10:25;27.20;93.00
20558;DHT22;10437;48.156;11.530;2022-09-04T13:13:07;27.20;93.20
20558;DHT22;10437;48.156;11.530;2022-09-04T13:15:42;27.00;93.10
20558;DHT22;10437;48.156;11.530;2022-09-04T13:18:24;26.80;90.80
20558;DHT22;10437;48.156;11.530;2022-09-04T13:21:03;26.60;93.70
20558;DHT22;10437;48.156;11.530;2022-09-04T13:23:52;26.50;92.00
20558;DHT22;10437;48.156;11.530;2022-09-04T13:26:37;26.70;91.80
20558;DHT22;10437;48.156;11.530;2022-09-04T13:29:17;26.80;94.20
20558;DHT22;10437;48.156;11.530;2022-09-04T13:32:01;26.40;93.90
20558;DHT22;10437;48.156;11.530;2022-09-04T13:34:40;26.10;93.70
20558;DHT22;10437;48.156;11.530;2022-09-04T13:37:17;26.30;93.40
20558;DHT22;10437;48.156;11.530;2022-09-04T13:40:02;26.60;91.40
20558;DHT22;10437;48.156;11.530;2022-09-04T13:42:52;26.90;99.90
20558;DHT22;10437;48.156;11.530;2022-09-04T13:45:27;26.70;92.10
20558;DHT22;10437;48.156;11.530;2022-09-04T13:47:55;26.50;94.10
20558;DHT22;10437;48.156;11.530;2022-09-04T13:50:29;26.80;91.60
20558;DHT22;10437;48.156;11.530;2022-09-04T13:53:01;26.90;91.00
20558;DHT22;10437;48.156;11.530;2022-09-04T13:55:33;27.00;94.20
20558;DHT22;10437;48.156;11.530;2022-09-04T13:58:06;26.80;90.50
20558;DHT22;10437;48.156;11.530;2022-09-04T14:00:43;27.00;90.40
20558;DHT22;10437;48.156;11.530;2022-09-04T14:03:17;27.10;90.60
20558;DHT22;10437;48.156;11.530;2022-09-04T14:08:14;26.70;91.10
20558;DHT22;10437;48.156;11.530;2022-09-04T14:11:00;26.60;88.90
20558;DHT22;10437;48.156;11.530;2022-09-04T14:13:42;26.90;90.00
20558;DHT22;10437;48.156;11.530;2022-09-04T14:16:17;26.70;99.90
20558;DHT22;10437;48.156;11.530;2022-09-04T14:19:02;27.20;84.90
20558;DHT22;10437;48.156;11.530;2022-09-04T14:21:48;26.70;89.10
20558;DHT22;10437;48.156;11.530;2022-09-04T14:24:25;27.10;91.20
20558;DHT22;10437;48.156;11.530;2022-09-04T14:27:03;26.90;90.20
20558;DHT22;10437;48.156;11.530;2022-09-04T14:29:37;25.70;91.40
20558;DHT22;10437;48.156;11.530;2022-09-04T14:32:18;27.20;91.10
20558;DHT22;10437;48.156;11.530;2022-09-04T14:34:54;26.70;90.40
20558;DHT22;10437;48.156;11.530;2022-09-04T14:37:49;26.60;85.50
20558;DHT22;10437;48.156;11.530;2022-09-04T14:40:21;26.90;89.70
20558;DHT22;10437;48.156;11.530;2022-09-04T14:42:55;26.70;89.70
20558;DHT22;10437;48.156;11.530;2022-09-04T14:45:36;27.00;99.90
20558;DHT22;10437;48.156;11.530;2022-09-04T14:48:07;27.20;89.30
20558;DHT22;10437;48.156;11.530;2022-09-04T14:50:44;26.90;88.30
20558;DHT22;10437;48.156;11.530;2022-09-04T14:53:19;26.70;88.00
20558;DHT22;10437;48.156;11.530;2022-09-04T14:56:12;26.90;95.20
20558;DHT22;10437;48.156;11.530;2022-09-04T14:58:46;26.60;90.10
20558;DHT22;10437;48.156;11.530;2022-09-04T15:01:17;26.50;90.60
20558;DHT22;10437;48.156;11.530;2022-09-04T15:03:49;26.30;91.30
20558;DHT22;10437;48.156;11.530;2022-09-04T15:06:21;27.10;90.80
20558;DHT22;10437;48.156;11.530;2022-09-04T15:08:51;26.10;90.30
20558;DHT22;10437;48.156;11.530;2022-09-04T15:11:25;26.40;92.40
20558;DHT22;10437;48.156;11.530;2022-09-04T15:13:56;25.70;91.00
20558;DHT22;10437;48.156;11.530;2022-09-04T15:16:42;25.80;91.10
20558;DHT22;10437;48.156;11.530;2022-09-04T15:19:30;25.60;88.60
20558;DHT22;10437;48.156;11.530;2022-09-04T15:22:03;25.10;91.60
20558;DHT22;10437;48.156;11.530;2022-09-04T15:24:34;25.20;93.30
20558;DHT22;10437;48.156;11.530;2022-09-04T15:27:10;25.40;92.20
20558;DHT22;10437;48.156;11.530;2022-09-04T15:29:53;25.80;93.10
20558;DHT22;10437;48.156;11.530;2022-09-04T15:32:24;24.90;91.60
20558;DHT22;10437;48.156;11.530;2022-09-04T15:35:13;24.90;92.00
20558;DHT22;10437;48.156;11.530;2022-09-04T15:37:43;24.80;91.60
20558;DHT22;10437;48.156;11.530;2022-09-04T15:40:20;25.10;92.10
20558;DHT22;10437;48.156;11.530;2022-09-04T15:42:58;24.70;91.60
20558;DHT22;10437;48.156;11.530;2022-09-04T15:45:31;24.70;92.30
20558;DHT22;10437;48.156;11.530;2022-09-04T15:48:08;24.50;99.90
20558;DHT22;10437;48.156;11.530;2022-09-04T15:50:50;24.70;92.20
20558;DHT22;10437;48.156;11.530;2022-09-04T15:53:22;24.30;93.70
20558;DHT22;10437;48.156;11.530;2022-09-04T15:56:03;24.60;98.80
20558;DHT22;10437;48.156;11.530;2022-09-04T15:58:39;23.80;95.40
20558;DHT22;10437;48.156;11.530;2022-09-04T16:01:11;24.10;93.50
20558;DHT22;10437;48.156;11.530;2022-09-04T16:03:52;24.10;93.00
20558;DHT22;10437;48.156;11.530;2022-09-04T16:06:24;24.10;93.30
20558;DHT22;10437;48.156;11.530;2022-09-04T16:08:59;23.70;93.30
20558;DHT22;10437;48.156;11.530;2022-09-04T16:11:30;23.80;98.50
20558;DHT22;10437;48.156;11.530;2022-09-04T16:14:01;23.60;93.20
20558;DHT22;10437;48.156;11.530;2022-09-04T16:16:33;23.90;96.90
20558;DHT22;10437;48.156;11.530;2022-09-04T16:19:10;23.90;93.40
20558;DHT22;10437;48.156;11.530;2022-09-04T16:21:53;24.30;91.60
20558;DHT22;10437;48.156;11.530;2022-09-04T16:24:38;23.60;97.40
20558;DHT22;10437;48.156;11.530;2022-09-04T16:27:07;23.90;93.90
20558;DHT22;10437;48.156;11.530;2022-09-04T16:29:38;21.00;93.80
20558;DHT22;10437;48.156;11.530;2022-09-04T16:32:08;23.60;94.50
20558;DHT22;10437;48.156;11.530;2022-09-04T16:34:42;23.30;99.20
20558;DHT22;10437;48.156;11.530;2022-09-04T16:37:14;23.50;95.10
20558;DHT22;10437;48.156;11.530;2022-09-04T16:39:53;23.60;97.20
20558;DHT22;10437;48.156;11.530;2022-09-04T16:42:25;23.30;94.80
20558;DHT22;10437;48.156;11.530;2022-09-04T16:44:57;23.30;95.30
20558;DHT22;10437;48.156;11.530;2022-09-04T16:47:31;23.00;99.90
20558;DHT22;10437;48.156;11.530;2022-09-04T16:50:07;23.20;95.60
20558;DHT22;10437;48.156;11.530;2022-09-04T16:52:53;23.20;93.50
20558;DHT22;10437;48.156;11.530;2022-09-04T16:55:26;23.30;98.40
20558;DHT22;10437;48.156;11.530;2022-09-04T16:58:15;23.00;93.90
20558;DHT22;10437;48.156;11.530;2022-09-04T17:00:55;22.90;94.30
20558;DHT22;10437;48.156;11.530;2022-09-04T17:03:35;23.20;99.30
20558;DHT22;10437;48.156;11.530;2022-09-04T17:06:13;22.90;96.80
20558;DHT22;10437;48.156;11.530;2022-09-04T17:08:48;22.80;97.10
20558;DHT22;10437;48.156;11.530;2022-09-04T17:11:19;22.80;96.80
20558;DHT22;10437;48.156;11.530;2022-09-04T17:13:51;22.60;99.60
20558;DHT22;10437;48.156;11.530;2022-09-04T17:16:22;22.90;97.20
20558;DHT22;10437;48.156;11.530;2022-09-04T17:18:50;22.60;97.40
20558;DHT22;10437;48.156;11.530;2022-09-04T17:21:23;22.50;97.00
20558;DHT22;10437;48.156;11.530;2022-09-04T17:24:15;22.40;99.90
20558;DHT22;10437;48.156;11.530;2022-09-04T17:26:45;22.40;97.40
20558;DHT22;10437;48.156;11.530;2022-09-04T17:29:17;22.30;97.80
20558;DHT22;10437;48.156;11.530;2022-09-04T17:31:52;22.30;97.90
20558;DHT22;10437;48.156;11.530;2022-09-04T17:34:37;22.20;98.20
20558;DHT22;10437;48.156;11.530;2022-09-04T17:37:11;22.20;98.20
20558;DHT22;10437;48.156;11.530;2022-09-04T17:39:47;22.00;98.30
20558;DHT22;10437;48.156;11.530;2022-09-04T17:42:19;22.00;98.50
20558;DHT22;10437;48.156;11.530;2022-09-04T17:44:57;22.30;99.50
20558;DHT22;10437;48.156;11.530;2022-09-04T17:47:30;22.30;99.90
20558;DHT22;10437;48.156;11.530;2022-09-04T17:49:59;21.70;99.90
20558;DHT22;10437;48.156;11.530;2022-09-04T17:52:29;22.30;99.90
20558;DHT22;10437;48.156;11.530;2022-09-04T17:55:02;21.60;99.90
20558;DHT22;10437;48.156;11.530;2022-09-04T17:57:45;21.60;99.90
20558;DHT22;10437;48.156;11.530;2022-09-04T18:00:18;21.60;99.90
20558;DHT22;10437;48.156;11.530;2022-09-04T18:02:52;21.50;99.90
20558;DHT22;10437;48.156;11.530;2022-09-04T18:05:24;21.20;99.90
20558;DHT22;10437;48.156;11.530;2022-09-04T18:07:55;21.40;99.90
20558;DHT22;10437;48.156;11.530;2022-09-04T18:10:32;21.30;99.90
20558;DHT22;10437;48.156;11.530;2022-09-04T18:13:08;21.20;99.90
20558;DHT22;10437;48.156;11.530;2022-09-04T18:15:42;21.20;99.90
20558;DHT22;10437;48.156;11.530;2022-09-04T18:18:17;21.10;99.90
20558;DHT22;10437;48.156;11.530;2022-09-04T18:20:50;20.80;99.90
20558;DHT22;10437;48.156;11.530;2022-09-04T18:23:39;21.00;99.90
20558;DHT22;10437;48.156;11.530;2022-09-04T18:26:15;20.10;99.90
20558;DHT22;10437;48.156;11.530;2022-09-04T18:28:48;20.90;99.90